createdAt,value
2023-03-11T00:00:27.484Z,93107.05
2023-03-11T00:02:53.842Z,93100.77
2023-03-11T00:05:21.580Z,93100.77
2023-03-11T00:07:48.248Z,93113.97
2023-03-11T00:10:12.908Z,93127.66
2023-03-11T00:12:39.304Z,93140.20
2023-03-11T00:15:05.655Z,93157.75
2023-03-11T00:17:32.032Z,93142.93
2023-03-11T00:19:58.378Z,93142.93
2023-03-11T00:22:24.767Z,93133.11
2023-03-11T00:24:51.113Z,93146.80
2023-03-11T00:27:17.536Z,93138.41
2023-03-11T00:29:43.881Z,93138.92
2023-03-11T00:32:10.259Z,93140.69
2023-03-11T00:34:36.613Z,93142.78
2023-03-11T00:37:02.981Z,93122.66
2023-03-11T00:39:29.329Z,93122.66
2023-03-11T00:41:55.725Z,93125.86
2023-03-11T00:44:22.056Z,93122.33
2023-03-11T00:46:48.452Z,93118.80
2023-03-11T00:49:14.806Z,93131.19
2023-03-11T00:51:41.178Z,93138.44
2023-03-11T00:54:07.518Z,93133.29
2023-03-11T00:56:33.915Z,93121.38
2023-03-11T00:59:00.255Z,93114.94
2023-03-11T01:01:26.694Z,93114.30
2023-03-11T01:03:53.079Z,93102.72
2023-03-11T01:06:19.378Z,93093.38
2023-03-11T01:08:45.708Z,93090.80
2023-03-11T01:11:12.101Z,93087.89
2023-03-11T01:13:38.447Z,93078.58
2023-03-11T01:16:04.866Z,93070.53
2023-03-11T01:18:31.170Z,93069.57
2023-03-11T01:20:57.599Z,93075.50
2023-03-11T01:23:23.892Z,93073.91
2023-03-11T01:25:51.268Z,93066.34
2023-03-11T01:28:17.820Z,93057.00
2023-03-11T01:30:43.077Z,93059.42
2023-03-11T01:33:09.367Z,93058.13
2023-03-11T01:35:35.760Z,93045.92
2023-03-11T01:38:02.089Z,93046.41
2023-03-11T01:40:28.475Z,93035.30
2023-03-11T01:42:54.856Z,93038.20
2023-03-11T01:45:21.207Z,93019.84
2023-03-11T01:47:48.493Z,93014.07
2023-03-11T01:50:13.934Z,93004.25
2023-03-11T01:52:40.267Z,92993.15
2023-03-11T01:55:06.667Z,92997.16
2023-03-11T01:57:33.002Z,92995.87
2023-03-11T01:59:59.395Z,92993.78
2023-03-11T02:02:25.733Z,92997.97
2023-03-11T02:04:52.122Z,93008.75
2023-03-11T02:07:18.478Z,93034.67
2023-03-11T02:09:44.886Z,93048.32
2023-03-11T02:12:12.200Z,93054.46
2023-03-11T02:14:37.618Z,93048.36
2023-03-11T02:17:03.964Z,93049.14
2023-03-11T02:19:30.348Z,93048.36
2023-03-11T02:21:56.694Z,93050.13
2023-03-11T02:24:23.103Z,93056.23
2023-03-11T02:26:49.426Z,93071.20
2023-03-11T02:29:15.811Z,93084.88
2023-03-11T02:31:43.257Z,93077.79
2023-03-11T02:34:08.545Z,93078.11
2023-03-11T02:36:34.891Z,93074.44
2023-03-11T02:39:01.273Z,93066.72
2023-03-11T02:41:27.618Z,93066.72
2023-03-11T02:43:53.998Z,93080.22
2023-03-11T02:46:20.383Z,93074.26
2023-03-11T02:48:46.733Z,93081.98
2023-03-11T02:51:13.087Z,93081.83
2023-03-11T02:53:39.429Z,93083.27
2023-03-11T02:56:05.850Z,93096.14
2023-03-11T02:58:32.195Z,93097.94
2023-03-11T03:00:58.636Z,93096.33
2023-03-11T03:03:24.935Z,93101.14
2023-03-11T03:05:52.269Z,93096.47
2023-03-11T03:08:17.662Z,93080.55
2023-03-11T03:10:44.048Z,93089.23
2023-03-11T03:13:10.384Z,93091.33
2023-03-11T03:15:36.775Z,93089.41
2023-03-11T03:18:03.123Z,93090.52
2023-03-11T03:20:29.520Z,93086.50
2023-03-11T03:22:55.855Z,93083.13
2023-03-11T03:25:22.240Z,93079.77
2023-03-11T03:27:48.601Z,93073.16
2023-03-11T03:30:14.973Z,93078.48
2023-03-11T03:32:41.344Z,93078.48
2023-03-11T03:35:07.715Z,93083.62
2023-03-11T03:37:34.049Z,93077.34
2023-03-11T03:40:00.436Z,93080.73
2023-03-11T03:42:26.770Z,93077.83
2023-03-11T03:44:53.166Z,93079.30
2023-03-11T03:47:19.523Z,93083.93
2023-03-11T03:49:45.934Z,93063.66
2023-03-11T03:52:12.283Z,93075.25
2023-03-11T03:54:38.664Z,93076.39
2023-03-11T03:57:04.999Z,93056.75
2023-03-11T03:59:31.388Z,93055.95
2023-03-11T04:01:57.767Z,93061.42
2023-03-11T04:04:24.114Z,93069.95
2023-03-11T04:06:50.505Z,93077.05
2023-03-11T04:09:16.881Z,93072.67
2023-03-11T04:11:43.259Z,93075.43
2023-03-11T04:14:09.656Z,93069.80
2023-03-11T04:16:36.088Z,93068.19
2023-03-11T04:19:02.426Z,93071.09
2023-03-11T04:21:28.781Z,93075.91
2023-03-11T04:23:55.160Z,93082.83
2023-03-11T04:26:21.508Z,93079.95
2023-03-11T04:28:47.924Z,93083.81
2023-03-11T04:31:14.294Z,93083.00
2023-03-11T04:33:40.636Z,93089.91
2023-03-11T04:36:06.997Z,93089.91
2023-03-11T04:38:33.358Z,93093.45
2023-03-11T04:40:59.708Z,93089.59
2023-03-11T04:43:26.100Z,93088.30
2023-03-11T04:45:52.474Z,93083.16
2023-03-11T04:48:18.838Z,93076.39
2023-03-11T04:50:45.178Z,93068.04
2023-03-11T04:53:11.564Z,93071.42
2023-03-11T04:55:37.909Z,93079.47
2023-03-11T04:58:04.283Z,93077.85
2023-03-11T05:00:30.625Z,93069.80
2023-03-11T05:02:57.063Z,93074.32
2023-03-11T05:05:23.374Z,93088.15
2023-03-11T05:07:49.778Z,93092.01
2023-03-11T05:10:16.110Z,93098.77
2023-03-11T05:12:42.517Z,93090.72
2023-03-11T05:15:08.870Z,93095.87
2023-03-11T05:17:35.249Z,93096.02
2023-03-11T05:20:01.594Z,93106.97
2023-03-11T05:22:27.996Z,93095.24
2023-03-11T05:24:54.341Z,93108.41
2023-03-11T05:27:20.722Z,93114.36
2023-03-11T05:29:48.328Z,93118.70
2023-03-11T05:32:13.521Z,93117.42
2023-03-11T05:34:39.829Z,93119.69
2023-03-11T05:37:06.197Z,93126.13
2023-03-11T05:39:32.552Z,93135.91
2023-03-11T05:41:58.932Z,93128.19
2023-03-11T05:44:25.282Z,93127.89
2023-03-11T05:46:51.738Z,93138.19
2023-03-11T05:49:18.033Z,93140.75
2023-03-11T05:51:44.389Z,93140.58
2023-03-11T05:54:10.734Z,93148.95
2023-03-11T05:56:37.117Z,93149.59
2023-03-11T05:59:03.455Z,93155.21
2023-03-11T06:01:29.843Z,93163.44
2023-03-11T06:03:56.275Z,93164.22
2023-03-11T06:06:22.562Z,93171.94
2023-03-11T06:08:48.897Z,93172.44
2023-03-11T06:11:15.268Z,93171.00
2023-03-11T06:13:41.615Z,93171.00
2023-03-11T06:16:08.077Z,93175.64
2023-03-11T06:18:34.378Z,93164.38
2023-03-11T06:21:02.084Z,93166.17
2023-03-11T06:23:27.169Z,93170.98
2023-03-11T06:25:53.558Z,93174.05
2023-03-11T06:28:19.904Z,93175.33
2023-03-11T06:30:46.293Z,93175.33
2023-03-11T06:33:12.633Z,93177.41
2023-03-11T06:35:39.064Z,93176.12
2023-03-11T06:38:05.362Z,93178.55
2023-03-11T06:40:31.749Z,93171.16
2023-03-11T06:42:58.098Z,93171.16
2023-03-11T06:45:24.521Z,93172.45
2023-03-11T06:47:50.860Z,93175.02
2023-03-11T06:50:18.194Z,93169.54
2023-03-11T06:52:43.599Z,93173.06
2023-03-11T06:55:10.031Z,93169.86
2023-03-11T06:57:36.353Z,93169.05
2023-03-11T07:00:02.743Z,93167.44
2023-03-11T07:02:29.086Z,93173.06
2023-03-11T07:04:55.517Z,93177.41
2023-03-11T07:07:21.815Z,93177.10
2023-03-11T07:09:48.202Z,93176.77
2023-03-11T07:12:14.549Z,93170.34
2023-03-11T07:14:40.931Z,93177.26
2023-03-11T07:17:08.485Z,93179.50
2023-03-11T07:19:34.009Z,93175.00
2023-03-11T07:22:00.360Z,93177.10
2023-03-11T07:24:26.732Z,93174.53
2023-03-11T07:26:53.083Z,93170.16
2023-03-11T07:29:19.865Z,93162.29
2023-03-11T07:31:45.890Z,93160.05
2023-03-11T07:34:12.209Z,93147.66
2023-03-11T07:36:38.587Z,93149.44
2023-03-11T07:39:04.996Z,93147.66
2023-03-11T07:41:31.319Z,93148.47
2023-03-11T07:43:57.697Z,93144.72
2023-03-11T07:46:24.079Z,93142.33
2023-03-11T07:48:50.422Z,93136.70
2023-03-11T07:51:16.767Z,93128.02
2023-03-11T07:53:43.156Z,93127.38
2023-03-11T07:56:09.512Z,93127.55
2023-03-11T07:58:35.886Z,93120.13
2023-03-11T08:01:03.539Z,93113.69
2023-03-11T08:03:28.663Z,93110.48
2023-03-11T08:05:54.964Z,93096.49
2023-03-11T08:08:21.344Z,93099.39
2023-03-11T08:10:47.695Z,93105.50
2023-03-11T08:13:14.075Z,93094.72
2023-03-11T08:15:40.432Z,93094.57
2023-03-11T08:18:06.802Z,93085.24
2023-03-11T08:20:33.150Z,93074.80
2023-03-11T08:22:59.540Z,93070.95
2023-03-11T08:25:25.865Z,93064.84
2023-03-11T08:27:52.267Z,93066.61
2023-03-11T08:30:18.614Z,93057.60
2023-03-11T08:32:45.027Z,93059.85
2023-03-11T08:35:11.336Z,93055.84
2023-03-11T08:37:37.752Z,93052.79
2023-03-11T08:40:04.109Z,93050.52
2023-03-11T08:42:30.486Z,93051.18
2023-03-11T08:44:56.822Z,93046.03
2023-03-11T08:47:23.209Z,93044.75
2023-03-11T08:49:50.500Z,93042.17
2023-03-11T08:52:15.988Z,93038.13
2023-03-11T08:54:42.332Z,93031.23
2023-03-11T08:57:08.713Z,93028.98
2023-03-11T08:59:35.050Z,93030.09
2023-03-11T09:02:01.444Z,93022.55
2023-03-11T09:04:27.787Z,93019.98
2023-03-11T09:06:54.196Z,93020.31
2023-03-11T09:09:20.618Z,93018.69
2023-03-11T09:11:47.001Z,93015.46
2023-03-11T09:14:13.337Z,93017.23
2023-03-11T09:16:39.731Z,93017.08
2023-03-11T09:19:06.062Z,93014.21
2023-03-11T09:21:32.453Z,93018.38
2023-03-11T09:23:58.799Z,93019.17
2023-03-11T09:26:25.186Z,93012.89
2023-03-11T09:28:51.533Z,93008.23
2023-03-11T09:31:17.943Z,93010.02
2023-03-11T09:33:44.293Z,93003.44
2023-03-11T09:36:10.684Z,92997.94
2023-03-11T09:38:37.021Z,93005.50
2023-03-11T09:41:03.410Z,92995.87
2023-03-11T09:43:29.760Z,93001.16
2023-03-11T09:45:56.147Z,92997.31
2023-03-11T09:48:22.897Z,92995.36
2023-03-11T09:50:48.877Z,92988.45
2023-03-11T09:53:15.218Z,92992.02
2023-03-11T09:55:43.289Z,92990.07
2023-03-11T09:58:08.051Z,92989.92
2023-03-11T10:00:34.482Z,92990.55
2023-03-11T10:03:00.840Z,92989.77
2023-03-11T10:05:27.232Z,92984.92
2023-03-11T10:07:53.598Z,92993.30
2023-03-11T10:10:19.975Z,92998.77
2023-03-11T10:12:46.320Z,92997.01
2023-03-11T10:15:12.722Z,92997.79
2023-03-11T10:17:39.060Z,92988.48
2023-03-11T10:20:05.453Z,92991.83
2023-03-11T10:22:31.795Z,92996.17
2023-03-11T10:24:58.181Z,93009.52
2023-03-11T10:27:24.560Z,93005.80
2023-03-11T10:29:50.947Z,93005.98
2023-03-11T10:32:17.483Z,93005.17
2023-03-11T10:34:43.805Z,93004.69
2023-03-11T10:37:10.139Z,93011.60
2023-03-11T10:39:36.515Z,93004.98
2023-03-11T10:42:02.902Z,93001.27
2023-03-11T10:44:29.253Z,93001.59
2023-03-11T10:46:55.602Z,93001.74
2023-03-11T10:49:23.220Z,93003.66
2023-03-11T10:51:48.325Z,93002.37
2023-03-11T10:54:15.917Z,92998.69
2023-03-11T10:56:41.068Z,93006.56
2023-03-11T10:59:07.444Z,93005.61
2023-03-11T11:01:33.850Z,93005.61
2023-03-11T11:04:00.178Z,93012.52
2023-03-11T11:06:26.518Z,93018.63
2023-03-11T11:08:52.897Z,93030.20
2023-03-11T11:11:19.248Z,93045.17
2023-03-11T11:13:45.639Z,93033.44
2023-03-11T11:16:12.015Z,93034.39
2023-03-11T11:18:38.381Z,93029.09
2023-03-11T11:21:04.727Z,93026.82
2023-03-11T11:23:31.118Z,93023.44
2023-03-11T11:25:57.454Z,93021.20
2023-03-11T11:28:25.997Z,93014.43
2023-03-11T11:30:52.395Z,93010.42
2023-03-11T11:33:18.717Z,92999.50
2023-03-11T11:35:45.058Z,92996.27
2023-03-11T11:38:11.492Z,92999.98
2023-03-11T11:40:37.790Z,93003.69
2023-03-11T11:43:04.194Z,93007.70
2023-03-11T11:45:30.547Z,92996.27
2023-03-11T11:47:56.930Z,92976.81
2023-03-11T11:50:23.272Z,92971.66
2023-03-11T11:52:49.667Z,92973.58
2023-03-11T11:55:16.004Z,92966.99
2023-03-11T11:57:42.392Z,92957.80
2023-03-11T12:00:08.740Z,92956.83
2023-03-11T12:02:35.126Z,92952.96
2023-03-11T12:05:01.483Z,92947.81
2023-03-11T12:07:27.851Z,92949.23
2023-03-11T12:09:54.184Z,92949.53
2023-03-11T12:12:20.572Z,92949.66
2023-03-11T12:14:47.036Z,92955.46
2023-03-11T12:17:13.410Z,92961.90
2023-03-11T12:19:39.775Z,92952.22
2023-03-11T12:22:06.137Z,92947.35
2023-03-11T12:24:32.509Z,92945.59
2023-03-11T12:26:58.876Z,92932.56
2023-03-11T12:29:25.215Z,92938.54
2023-03-11T12:31:51.629Z,92942.87
2023-03-11T12:34:17.979Z,92945.77
2023-03-11T12:36:44.367Z,92941.23
2023-03-11T12:39:10.705Z,92947.05
2023-03-11T12:41:37.088Z,92947.84
2023-03-11T12:44:03.445Z,92949.76
2023-03-11T12:46:29.890Z,92949.93
2023-03-11T12:48:56.153Z,92949.45
2023-03-11T12:51:22.545Z,92956.70
2023-03-11T12:53:48.900Z,92959.22
2023-03-11T12:56:15.280Z,92955.06
2023-03-11T12:58:41.625Z,92961.84
2023-03-11T13:01:08.019Z,92958.46
2023-03-11T13:03:34.354Z,92957.00
2023-03-11T13:06:00.749Z,92965.38
2023-03-11T13:08:27.098Z,92967.46
2023-03-11T13:10:53.537Z,92969.23
2023-03-11T13:13:19.876Z,92976.95
2023-03-11T13:15:46.254Z,92976.95
2023-03-11T13:18:12.645Z,92968.94
2023-03-11T13:20:38.999Z,92972.13
2023-03-11T13:23:05.376Z,92985.34
2023-03-11T13:25:31.728Z,92990.83
2023-03-11T13:27:58.099Z,92998.22
2023-03-11T13:30:24.444Z,92999.33
2023-03-11T13:32:50.864Z,93003.19
2023-03-11T13:35:17.184Z,93006.11
2023-03-11T13:37:43.560Z,93016.25
2023-03-11T13:40:09.916Z,93024.31
2023-03-11T13:42:36.307Z,93041.53
2023-03-11T13:45:02.652Z,93054.41
2023-03-11T13:47:29.061Z,93050.36
2023-03-11T13:49:55.403Z,93053.60
2023-03-11T13:52:21.817Z,93066.48
2023-03-11T13:54:48.180Z,93066.48
2023-03-11T13:57:14.550Z,93076.16
2023-03-11T13:59:40.887Z,93092.89
2023-03-11T14:02:07.279Z,93096.10
2023-03-11T14:04:33.641Z,93103.83
2023-03-11T14:07:00.096Z,93117.03
2023-03-11T14:09:26.357Z,93114.12
2023-03-11T14:11:52.738Z,93104.63
2023-03-11T14:14:19.096Z,93101.25
2023-03-11T14:16:45.530Z,93090.51
2023-03-11T14:19:11.823Z,93090.51
2023-03-11T14:21:38.250Z,93103.34
2023-03-11T14:24:04.584Z,93102.54
2023-03-11T14:26:30.974Z,93099.48
2023-03-11T14:28:57.315Z,93099.96
2023-03-11T14:31:23.745Z,93091.91
2023-03-11T14:33:50.058Z,93096.76
2023-03-11T14:36:16.487Z,93090.47
2023-03-11T14:38:42.792Z,93099.16
2023-03-11T14:41:09.165Z,93098.05
2023-03-11T14:43:35.510Z,93105.59
2023-03-11T14:46:01.966Z,93109.78
2023-03-11T14:48:28.247Z,93105.11
2023-03-11T14:50:54.615Z,93111.07
2023-03-11T14:53:20.971Z,93116.08
2023-03-11T14:55:47.350Z,93120.89
2023-03-11T14:58:13.697Z,93133.47
2023-03-11T15:00:40.112Z,93126.85
2023-03-11T15:03:06.474Z,93124.46
2023-03-11T15:05:32.841Z,93125.90
2023-03-11T15:07:59.189Z,93134.91
2023-03-11T15:10:25.569Z,93138.59
2023-03-11T15:12:51.920Z,93146.64
2023-03-11T15:15:18.290Z,93151.32
2023-03-11T15:17:44.663Z,93160.15
2023-03-11T15:20:11.023Z,93168.06
2023-03-11T15:22:37.729Z,93170.60
2023-03-11T15:25:04.190Z,93170.45
2023-03-11T15:27:30.534Z,93173.36
2023-03-11T15:29:56.924Z,93179.80
2023-03-11T15:32:23.329Z,93183.99
2023-03-11T15:34:51.850Z,93178.51
2023-03-11T15:37:18.198Z,93188.66
2023-03-11T15:39:44.588Z,93199.78
2023-03-11T15:42:10.939Z,93200.55
2023-03-11T15:44:37.338Z,93209.89
2023-03-11T15:47:03.689Z,93217.63
2023-03-11T15:49:30.107Z,93229.73
2023-03-11T15:51:56.443Z,93236.98
2023-03-11T15:54:22.941Z,93242.61
2023-03-11T15:56:49.210Z,93252.25
2023-03-11T15:59:15.554Z,93253.39
2023-03-11T16:01:41.905Z,93264.65
2023-03-11T16:04:08.359Z,93275.43
2023-03-11T16:06:34.657Z,93286.70
2023-03-11T16:09:01.036Z,93288.64
2023-03-11T16:11:27.376Z,93290.70
2023-03-11T16:13:53.758Z,93294.09
2023-03-11T16:16:20.172Z,93304.39
2023-03-11T16:18:46.475Z,93309.54
2023-03-11T16:21:12.824Z,93319.67
2023-03-11T16:23:51.063Z,93323.70
2023-03-11T16:26:05.589Z,93329.19
2023-03-11T16:28:32.047Z,93335.63
2023-03-11T16:30:58.414Z,93341.88
2023-03-11T16:33:24.764Z,93351.56
2023-03-11T16:35:51.225Z,93357.67
2023-03-11T16:38:17.487Z,93365.40
2023-03-11T16:40:43.838Z,93372.31
2023-03-11T16:43:10.201Z,93383.09
2023-03-11T16:45:36.547Z,93385.05
2023-03-11T16:48:02.954Z,93394.55
2023-03-11T16:50:29.291Z,93399.36
2023-03-11T16:52:55.671Z,93405.80
2023-03-11T16:55:22.014Z,93417.25
2023-03-11T16:57:48.409Z,93424.64
2023-03-11T17:00:14.824Z,93434.47
2023-03-11T17:02:41.164Z,93448.48
2023-03-11T17:05:07.529Z,93448.48
2023-03-11T17:07:33.916Z,93457.78
2023-03-11T17:10:00.410Z,93469.39
2023-03-11T17:12:26.643Z,93481.46
2023-03-11T17:14:52.992Z,93491.91
2023-03-11T17:17:19.408Z,93495.61
2023-03-11T17:19:45.756Z,93510.92
2023-03-11T17:22:12.161Z,93519.42
2023-03-11T17:24:38.492Z,93522.81
2023-03-11T17:27:04.890Z,93526.68
2023-03-11T17:29:31.226Z,93536.98
2023-03-11T17:31:57.619Z,93531.31
2023-03-11T17:34:23.965Z,93557.11
2023-03-11T17:36:50.349Z,93559.86
2023-03-11T17:39:16.698Z,93561.63
2023-03-11T17:41:43.076Z,93562.09
2023-03-11T17:44:09.418Z,93564.34
2023-03-11T17:46:35.856Z,93572.88
2023-03-11T17:49:02.175Z,93585.75
2023-03-11T17:51:28.562Z,93587.85
2023-03-11T17:53:54.899Z,93590.09
2023-03-11T17:56:21.280Z,93595.72
2023-03-11T17:58:47.624Z,93602.97
2023-03-11T18:01:14.017Z,93616.02
2023-03-11T18:03:40.400Z,93616.02
2023-03-11T18:06:06.788Z,93631.00
2023-03-11T18:08:33.151Z,93632.89
2023-03-11T18:10:59.537Z,93634.66
2023-03-11T18:13:25.897Z,93638.02
2023-03-11T18:15:52.273Z,93644.45
2023-03-11T18:18:18.609Z,93649.30
2023-03-11T18:20:45.000Z,93646.52
2023-03-11T18:23:11.351Z,93647.97
2023-03-11T18:25:37.734Z,93652.65
2023-03-11T18:28:04.116Z,93663.42
2023-03-11T18:30:30.496Z,93663.09
2023-03-11T18:32:56.891Z,93648.55
2023-03-11T18:35:23.229Z,93672.27
2023-03-11T18:37:49.565Z,93668.06
2023-03-11T18:40:15.994Z,93677.89
2023-03-11T18:42:43.351Z,93676.94
2023-03-11T18:45:08.733Z,93689.65
2023-03-11T18:47:35.089Z,93689.65
2023-03-11T18:50:01.463Z,93689.31
2023-03-11T18:52:27.818Z,93679.99
2023-03-11T18:54:54.208Z,93692.22
2023-03-11T18:57:20.543Z,93685.62
2023-03-11T18:59:46.926Z,93689.48
2023-03-11T19:02:13.269Z,93686.09
2023-03-11T19:04:39.708Z,93689.95
2023-03-11T19:07:06.017Z,93694.62
2023-03-11T19:09:32.401Z,93696.39
2023-03-11T19:11:58.842Z,93696.39
2023-03-11T19:14:25.219Z,93683.17
2023-03-11T19:16:51.624Z,93690.12
2023-03-11T19:19:18.312Z,93695.27
2023-03-11T19:21:44.653Z,93695.27
2023-03-11T19:24:11.046Z,93692.35
2023-03-11T19:26:44.882Z,93699.13
2023-03-11T19:29:03.790Z,93703.77
2023-03-11T19:31:30.133Z,93706.04
2023-03-11T19:33:56.558Z,93712.95
2023-03-11T19:36:22.902Z,93719.39
2023-03-11T19:38:49.284Z,93726.17
2023-03-11T19:41:15.659Z,93734.02
2023-03-11T19:43:42.089Z,93736.90
2023-03-11T19:46:08.411Z,93735.27
2023-03-11T19:48:34.804Z,93742.01
2023-03-11T19:51:02.433Z,93753.30
2023-03-11T19:53:27.542Z,93760.84
2023-03-11T19:55:53.856Z,93769.68
2023-03-11T19:58:20.252Z,93773.20
2023-03-11T20:00:46.628Z,93774.96
2023-03-11T20:03:13.037Z,93771.73
2023-03-11T20:05:39.331Z,93788.95
2023-03-11T20:08:05.733Z,93796.19
2023-03-11T20:10:32.070Z,93796.33
2023-03-11T20:13:02.476Z,93803.27
2023-03-11T20:15:24.795Z,93803.40
2023-03-11T20:17:52.433Z,93806.92
2023-03-11T20:20:17.545Z,93814.64
2023-03-11T20:22:43.932Z,93820.42
2023-03-11T20:25:10.352Z,93819.13
2023-03-11T20:27:36.697Z,93823.94
2023-03-11T20:30:03.070Z,93827.15
2023-03-11T20:32:29.499Z,93833.59
2023-03-11T20:34:55.847Z,93829.55
2023-03-11T20:37:22.192Z,93835.00
2023-03-11T20:39:48.533Z,93841.91
2023-03-11T20:42:14.995Z,93843.20
2023-03-11T20:44:41.254Z,93848.50
2023-03-11T20:47:07.715Z,93858.33
2023-03-11T20:49:34.053Z,93848.50
2023-03-11T20:52:00.443Z,93854.28
2023-03-11T20:54:26.787Z,93846.06
2023-03-11T20:56:54.378Z,93844.47
2023-03-11T20:59:19.484Z,93836.56
2023-03-11T21:01:45.924Z,93838.16
2023-03-11T21:04:12.674Z,93836.06
2023-03-11T21:06:38.681Z,93836.69
2023-03-11T21:09:05.084Z,93836.69
2023-03-11T21:11:31.507Z,93849.56
2023-03-11T21:13:57.813Z,93845.83
2023-03-11T21:16:24.176Z,93847.80
2023-03-11T21:18:50.520Z,93852.13
2023-03-11T21:21:16.912Z,93849.84
2023-03-11T21:23:43.167Z,93850.32
2023-03-11T21:26:09.576Z,93853.37
2023-03-11T21:28:35.899Z,93855.63
2023-03-11T21:31:02.566Z,93861.56
2023-03-11T21:33:30.355Z,93862.53
2023-03-11T21:35:56.752Z,93867.34
2023-03-11T21:38:23.085Z,93862.19
2023-03-11T21:40:49.579Z,93866.18
2023-03-11T21:43:16.004Z,93870.86
2023-03-11T21:45:42.290Z,93875.69
2023-03-11T21:48:09.816Z,93875.34
2023-03-11T21:50:34.965Z,93875.34
2023-03-11T21:53:01.339Z,93879.67
2023-03-11T21:55:27.754Z,93884.82
2023-03-11T21:57:54.201Z,93884.45
2023-03-11T22:00:20.492Z,93881.22
2023-03-11T22:02:46.778Z,93891.51
2023-03-11T22:05:13.368Z,93897.60
2023-03-11T22:07:39.738Z,93901.80
2023-03-11T22:10:06.037Z,93899.23
2023-03-11T22:12:32.354Z,93899.70
2023-03-11T22:14:58.768Z,93892.61
2023-03-11T22:17:25.255Z,93896.81
2023-03-11T22:19:51.515Z,93894.38
2023-03-11T22:22:17.825Z,93902.09
2023-03-11T22:24:44.147Z,93895.78
2023-03-11T22:27:10.496Z,93902.72
2023-03-11T22:29:36.880Z,93910.56
2023-03-11T22:32:03.314Z,93911.03
2023-03-11T22:34:29.615Z,93913.61
2023-03-11T22:36:55.998Z,93922.02
2023-03-11T22:39:22.346Z,93925.66
2023-03-11T22:41:48.714Z,93930.48
2023-03-11T22:44:15.107Z,93934.66
2023-03-11T22:46:41.448Z,93940.09
2023-03-11T22:49:07.837Z,93948.50
2023-03-11T22:51:34.180Z,93958.45
2023-03-11T22:54:00.621Z,93953.93
2023-03-11T22:56:26.951Z,93964.22
2023-03-11T22:58:53.338Z,93969.36
2023-03-11T23:01:19.681Z,93973.22
2023-03-11T23:03:46.081Z,93983.98
2023-03-11T23:06:12.544Z,93987.97
2023-03-11T23:08:38.898Z,93987.50
2023-03-11T23:11:05.235Z,93989.73
2023-03-11T23:13:33.022Z,93988.13
2023-03-11T23:15:57.961Z,93991.98
2023-03-11T23:18:24.349Z,93989.06
2023-03-11T23:20:50.693Z,93992.92
2023-03-11T23:23:17.080Z,93999.01
2023-03-11T23:25:43.438Z,94004.16
2023-03-11T23:28:09.811Z,94001.11
2023-03-11T23:30:36.217Z,93999.01
2023-03-11T23:33:02.549Z,94003.02
2023-03-11T23:35:28.897Z,94004.31
2023-03-11T23:37:55.309Z,93998.34
2023-03-11T23:40:21.648Z,93998.16
2023-03-11T23:42:48.005Z,94002.33
2023-03-11T23:45:14.379Z,94011.02
2023-03-11T23:47:40.720Z,94015.81
2023-03-11T23:50:07.125Z,94017.92
2023-03-11T23:52:33.460Z,94024.34
2023-03-11T23:54:59.894Z,94024.00
2023-03-11T23:57:26.253Z,94015.97
2023-03-11T23:59:52.632Z,94024.47
